Time;durP1;ratioP1;P1;durP2;ratioP2;P2;SDS_P1;SDS_P2;PMS_P1;PMS_P2;Temp;Humidity;BMP_temperature;BMP_pressure;BME280_temperature;BME280_humidity;BME280_pressure;Samples;Min_cycle;Max_cycle;Signal;HPM_P1;HPM_P2
2021/08/27 00:01:14;;;;;;;11.77;2.00;;;;;;;;;;5112622;28;20050;-67
2021/08/27 00:03:40;;;;;;;10.00;1.90;;;;;;;;;;5091909;28;20028;-67
2021/08/27 00:06:06;;;;;;;9.93;1.77;;;;;;;;;;5111481;28;20124;-67
2021/08/27 00:08:32;;;;;;;13.07;2.55;;;;;;;;;;5111395;28;20028;-67
2021/08/27 00:10:58;;;;;;;10.48;2.03;;;;;;;;;;5111431;28;20019;-67
2021/08/27 00:13:24;;;;;;;6.90;2.42;;;;;;;;;;5110064;28;20112;-67
2021/08/27 00:15:51;;;;;;;11.45;1.77;;;;;;;;;;5110684;28;20029;-67
2021/08/27 00:18:17;;;;;;;11.98;1.92;;;;;;;;;;5107361;28;20024;-67
2021/08/27 00:20:43;;;;;;;7.78;2.50;;;;;;;;;;5110154;28;20140;-67
2021/08/27 00:23:09;;;;;;;10.52;2.13;;;;;;;;;;5110421;28;20031;-67
2021/08/27 00:25:35;;;;;;;10.63;2.30;;;;;;;;;;5093512;28;20698;-67
2021/08/27 00:28:05;;;;;;;12.43;2.50;;;;;;;;;;5111388;28;20504;-67
2021/08/27 00:30:31;;;;;;;16.02;2.65;;;;;;;;;;5110100;28;20135;-67
2021/08/27 00:32:57;;;;;;;13.43;2.20;;;;;;;;;;5109588;28;20553;-67
2021/08/27 00:35:23;;;;;;;8.02;2.70;;;;;;;;;;5109058;28;20094;-67
2021/08/27 00:37:49;;;;;;;8.77;1.80;;;;;;;;;;5111350;28;20031;-67
2021/08/27 00:40:15;;;;;;;6.10;1.63;;;;;;;;;;5110874;28;20026;-67
2021/08/27 00:42:41;;;;;;;9.25;2.00;;;;;;;;;;5110603;28;20107;-67
2021/08/27 00:45:08;;;;;;;7.03;1.83;;;;;;;;;;5110611;28;20035;-67
2021/08/27 00:47:34;;;;;;;9.30;2.03;;;;;;;;;;5111107;28;20038;-67
2021/08/27 00:50:00;;;;;;;6.28;2.08;;;;;;;;;;5109089;28;20061;-67
2021/08/27 00:52:27;;;;;;;7.30;1.98;;;;;;;;;;5089395;28;20023;-67
2021/08/27 00:54:54;;;;;;;9.93;1.95;;;;;;;;;;5111143;28;20110;-67
2021/08/27 00:57:20;;;;;;;12.45;2.60;;;;;;;;;;5110648;28;20104;-67
2021/08/27 00:59:46;;;;;;;7.57;2.08;;;;;;;;;;5110545;28;20563;-67
2021/08/27 01:02:13;;;;;;;10.88;2.05;;;;;;;;;;5108477;28;20039;-67
2021/08/27 01:04:40;;;;;;;8.40;2.42;;;;;;;;;;5110522;28;20027;-67
2021/08/27 01:07:11;;;;;;;7.70;2.17;;;;;;;;;;5110845;28;20039;-67
2021/08/27 01:09:47;;;;;;;7.73;2.17;;;;;;;;;;5110493;28;20055;-67
2021/08/27 01:12:32;;;;;;;13.35;2.33;;;;;;;;;;5109501;28;20027;-67
2021/08/27 01:15:05;;;;;;;6.47;1.88;;;;;;;;;;5090540;28;20016;-67
2021/08/27 01:17:36;;;;;;;12.20;2.47;;;;;;;;;;5090458;28;20016;-67
2021/08/27 01:20:08;;;;;;;12.70;2.35;;;;;;;;;;5110417;28;20023;-67
2021/08/27 01:23:03;;;;;;;6.70;1.95;;;;;;;;;;5090813;28;20031;-67
2021/08/27 01:25:31;;;;;;;9.63;2.75;;;;;;;;;;5088026;28;20513;-67
2021/08/27 01:27:58;;;;;;;10.25;2.58;;;;;;;;;;5111121;28;20020;-67
2021/08/27 01:30:30;;;;;;;14.52;2.67;;;;;;;;;;5106921;28;20028;-67
2021/08/27 01:32:56;;;;;;;;;;;;;;;;;;5109390;28;20030;-67
2021/08/27 01:35:22;;;;;;;8.70;2.05;;;;;;;;;;5110382;28;19916;-67
2021/08/27 01:37:50;;;;;;;12.38;2.53;;;;;;;;;;5108255;28;20525;-67
2021/08/27 01:40:17;;;;;;;10.07;2.28;;;;;;;;;;5109936;28;20554;-67
2021/08/27 01:42:43;;;;;;;11.77;2.70;;;;;;;;;;5107544;28;20107;-67
2021/08/27 01:45:10;;;;;;;14.35;2.83;;;;;;;;;;5089032;28;20028;-67
2021/08/27 01:47:37;;;;;;;12.68;2.58;;;;;;;;;;5110230;28;20113;-67
2021/08/27 01:50:03;;;;;;;9.50;3.03;;;;;;;;;;5108257;28;20039;-67
2021/08/27 01:52:30;;;;;;;10.80;3.30;;;;;;;;;;5089355;28;20016;-67
2021/08/27 01:54:57;;;;;;;13.20;3.00;;;;;;;;;;5110079;28;20024;-67
2021/08/27 01:57:23;;;;;;;9.63;2.33;;;;;;;;;;5109575;28;20118;-67
2021/08/27 01:59:49;;;;;;;6.38;1.70;;;;;;;;;;5109692;28;20035;-67
2021/08/27 02:02:17;;;;;;;13.18;2.22;;;;;;;;;;5108658;28;20039;-67
2021/08/27 02:04:44;;;;;;;8.45;1.88;;;;;;;;;;5110003;28;20016;-67
2021/08/27 02:07:11;;;;;;;20.00;2.53;;;;;;;;;;5108853;28;20064;-67
2021/08/27 02:09:37;;;;;;;11.57;2.60;;;;;;;;;;5109901;28;20031;-66
2021/08/27 02:12:04;;;;;;;15.50;2.53;;;;;;;;;;5107433;28;20026;-67
2021/08/27 02:14:31;;;;;;;13.75;2.58;;;;;;;;;;5109170;28;20023;-67
2021/08/27 02:16:57;;;;;;;14.77;2.30;;;;;;;;;;5109209;28;20024;-67
2021/08/27 02:19:23;;;;;;;14.25;2.42;;;;;;;;;;5109065;28;20027;-66
2021/08/27 02:21:52;;;;;;;13.55;2.25;;;;;;;;;;5107466;28;20551;-66
2021/08/27 02:24:23;;;;;;;13.50;2.42;;;;;;;;;;5108298;28;20031;-66
2021/08/27 02:26:49;;;;;;;10.30;2.60;;;;;;;;;;5109598;28;20024;-67
2021/08/27 02:29:17;;;;;;;11.07;2.78;;;;;;;;;;5109534;28;20038;-67
2021/08/27 02:31:46;;;;;;;11.10;2.67;;;;;;;;;;5105464;28;20039;-67
2021/08/27 02:34:13;;;;;;;9.30;2.28;;;;;;;;;;5108424;28;20380;-66
2021/08/27 02:36:40;;;;;;;9.05;2.40;;;;;;;;;;5110236;28;20035;-67
2021/08/27 02:39:06;;;;;;;9.40;2.53;;;;;;;;;;5109814;28;20497;-67
2021/08/27 02:41:32;;;;;;;12.15;2.95;;;;;;;;;;5106384;28;20027;-67
2021/08/27 02:43:59;;;;;;;11.65;3.35;;;;;;;;;;5088695;28;20030;-67
2021/08/27 02:46:25;;;;;;;13.85;3.17;;;;;;;;;;5108204;28;20024;-67
2021/08/27 02:48:51;;;;;;;13.50;2.38;;;;;;;;;;5108663;28;20044;-66
2021/08/27 02:51:19;;;;;;;16.00;3.72;;;;;;;;;;5109389;28;20102;-67
2021/08/27 02:53:47;;;;;;;14.90;4.13;;;;;;;;;;5088758;28;20016;-67
2021/08/27 02:56:15;;;;;;;15.52;3.70;;;;;;;;;;5109577;28;20077;-67
2021/08/27 02:58:47;;;;;;;17.23;4.07;;;;;;;;;;5109962;28;20040;-66
2021/08/27 03:01:19;;;;;;;17.15;3.80;;;;;;;;;;5107010;28;20040;-66
2021/08/27 03:04:06;;;;;;;24.45;5.93;;;;;;;;;;5108819;28;20082;-67
2021/08/27 03:06:36;;;;;;;24.00;5.38;;;;;;;;;;5108938;28;20103;-66
2021/08/27 03:09:08;;;;;;;18.23;4.85;;;;;;;;;;5109540;28;20020;-67
2021/08/27 03:11:38;;;;;;;17.73;5.07;;;;;;;;;;5113407;28;20148;-67
2021/08/27 03:14:06;;;;;;;23.45;5.05;;;;;;;;;;5110103;28;20023;-66
2021/08/27 03:16:32;;;;;;;25.20;5.13;;;;;;;;;;5110158;28;20020;-67
2021/08/27 03:19:07;;;;;;;27.30;6.05;;;;;;;;;;5092921;28;20056;-67
2021/08/27 03:21:36;;;;;;;23.08;5.40;;;;;;;;;;5093292;28;20404;-67
2021/08/27 03:24:07;;;;;;;27.73;6.22;;;;;;;;;;5094027;28;20034;-67
2021/08/27 03:26:33;;;;;;;18.60;5.78;;;;;;;;;;5113115;28;20489;-67
2021/08/27 03:29:01;;;;;;;24.45;5.97;;;;;;;;;;5112506;28;20481;-67
2021/08/27 03:31:28;;;;;;;20.90;6.13;;;;;;;;;;5112750;28;20465;-66
2021/08/27 03:33:54;;;;;;;22.23;6.03;;;;;;;;;;5111486;28;20543;-66
2021/08/27 03:36:21;;;;;;;27.30;7.88;;;;;;;;;;5113006;28;20020;-67
2021/08/27 03:38:47;;;;;;;30.67;6.97;;;;;;;;;;5113172;28;20569;-66
2021/08/27 03:41:14;;;;;;;27.33;5.93;;;;;;;;;;5111505;28;20066;-66
2021/08/27 03:43:41;;;;;;;29.55;7.47;;;;;;;;;;5111581;28;20050;-67
2021/08/27 03:46:08;;;;;;;24.58;7.38;;;;;;;;;;5091390;28;20036;-66
2021/08/27 03:48:34;;;;;;;25.50;6.97;;;;;;;;;;5112254;28;20035;-67
2021/08/27 03:51:00;;;;;;;16.77;5.93;;;;;;;;;;5094312;28;20063;-67
2021/08/27 03:53:27;;;;;;;27.15;6.78;;;;;;;;;;5111728;28;20016;-67
2021/08/27 03:55:54;;;;;;;27.20;7.78;;;;;;;;;;5112414;28;20026;-66
2021/08/27 03:58:22;;;;;;;24.58;7.15;;;;;;;;;;5112255;28;20084;-66
2021/08/27 04:00:50;;;;;;;17.02;5.65;;;;;;;;;;5093326;28;20044;-66
2021/08/27 04:03:16;;;;;;;19.08;6.30;;;;;;;;;;5109050;28;20508;-67
2021/08/27 04:05:58;;;;;;;19.83;6.32;;;;;;;;;;5112533;28;20027;-67
2021/08/27 04:08:24;;;;;;;24.15;7.20;;;;;;;;;;5111694;28;20068;-66
2021/08/27 04:10:51;;;;;;;17.63;6.28;;;;;;;;;;5107509;28;20501;-67
2021/08/27 04:13:17;;;;;;;24.60;6.28;;;;;;;;;;5108121;28;20024;-67
2021/08/27 04:15:43;;;;;;;20.67;6.32;;;;;;;;;;5111524;28;20027;-67
2021/08/27 04:18:09;;;;;;;20.77;5.10;;;;;;;;;;5111952;28;20035;-66
2021/08/27 04:20:35;;;;;;;28.60;7.03;;;;;;;;;;5110793;28;20026;-67
2021/08/27 04:23:01;;;;;;;24.70;7.50;;;;;;;;;;5091682;28;20032;-67
2021/08/27 04:25:27;;;;;;;28.90;7.32;;;;;;;;;;5108532;28;20028;-67
2021/08/27 04:27:53;;;;;;;22.67;6.32;;;;;;;;;;5092965;28;20024;-67
2021/08/27 04:30:19;;;;;;;23.40;6.95;;;;;;;;;;5108849;28;20034;-66
2021/08/27 04:32:45;;;;;;;23.13;6.70;;;;;;;;;;5090304;28;20489;-67
2021/08/27 04:35:11;;;;;;;18.08;7.13;;;;;;;;;;5109078;28;20404;-66
2021/08/27 04:37:37;;;;;;;19.23;5.82;;;;;;;;;;5111992;28;20389;-67
2021/08/27 04:40:03;;;;;;;24.83;5.95;;;;;;;;;;5108400;28;20016;-67
2021/08/27 04:42:29;;;;;;;16.80;6.10;;;;;;;;;;5109867;28;20015;-66
2021/08/27 04:44:55;;;;;;;20.80;6.22;;;;;;;;;;5111535;28;20024;-67
2021/08/27 04:47:21;;;;;;;18.60;5.80;;;;;;;;;;5093151;28;20024;-66
2021/08/27 04:49:48;;;;;;;14.20;5.95;;;;;;;;;;5090821;28;20126;-67
2021/08/27 04:52:14;;;;;;;23.30;6.22;;;;;;;;;;5111057;28;20015;-67
2021/08/27 04:54:40;;;;;;;20.20;5.93;;;;;;;;;;5109972;28;20481;-67
2021/08/27 04:57:06;;;;;;;27.70;8.25;;;;;;;;;;5111158;28;20055;-67
2021/08/27 04:59:32;;;;;;;24.02;7.53;;;;;;;;;;5111006;28;20457;-67
2021/08/27 05:01:59;;;;;;;18.30;5.60;;;;;;;;;;5110755;28;20028;-66
2021/08/27 05:04:26;;;;;;;21.75;6.65;;;;;;;;;;5109628;28;20114;-66
2021/08/27 05:06:52;;;;;;;22.10;6.93;;;;;;;;;;5111015;28;20442;-67
2021/08/27 05:09:19;;;;;;;15.25;6.05;;;;;;;;;;5110578;28;20077;-66
2021/08/27 05:11:45;;;;;;;25.92;7.40;;;;;;;;;;5107961;28;20034;-67
2021/08/27 05:14:12;;;;;;;22.55;6.65;;;;;;;;;;5090980;28;20032;-66
2021/08/27 05:16:38;;;;;;;19.77;6.07;;;;;;;;;;5093421;28;20072;-66
2021/08/27 05:19:04;;;;;;;23.10;6.90;;;;;;;;;;5110949;28;20028;-66
2021/08/27 05:21:30;;;;;;;25.65;6.97;;;;;;;;;;5091686;28;20036;-66
2021/08/27 05:23:56;;;;;;;19.92;6.47;;;;;;;;;;5090546;28;20446;-66
2021/08/27 05:26:22;;;;;;;22.67;6.88;;;;;;;;;;5108170;28;20157;-66
2021/08/27 05:28:48;;;;;;;23.05;5.85;;;;;;;;;;5106679;28;20026;-67
2021/08/27 05:31:15;;;;;;;18.35;6.30;;;;;;;;;;5090418;28;20028;-67
2021/08/27 05:33:42;;;;;;;26.17;7.95;;;;;;;;;;5108372;28;20035;-67
2021/08/27 05:36:08;;;;;;;19.38;6.57;;;;;;;;;;5110393;28;20110;-67
2021/08/27 05:38:34;;;;;;;24.75;6.68;;;;;;;;;;5111012;28;20118;-67
2021/08/27 05:41:00;;;;;;;24.95;6.55;;;;;;;;;;5108839;28;20496;-67
2021/08/27 05:43:26;;;;;;;23.60;6.88;;;;;;;;;;5108665;28;20016;-67
2021/08/27 05:45:52;;;;;;;19.30;6.18;;;;;;;;;;5110974;28;20096;-67
2021/08/27 05:48:18;;;;;;;23.02;6.82;;;;;;;;;;5092336;28;20119;-67
2021/08/27 05:50:44;;;;;;;24.90;6.72;;;;;;;;;;5107537;28;20047;-67
2021/08/27 05:53:10;;;;;;;20.77;6.28;;;;;;;;;;5091022;28;20031;-67
2021/08/27 05:55:36;;;;;;;20.95;7.15;;;;;;;;;;5109190;28;20026;-66
2021/08/27 05:58:02;;;;;;;24.10;7.20;;;;;;;;;;5108089;28;20015;-66
2021/08/27 06:00:29;;;;;;;18.70;6.75;;;;;;;;;;5109784;28;20076;-67
2021/08/27 06:02:55;;;;;;;24.23;6.65;;;;;;;;;;5108416;28;20020;-67
2021/08/27 06:05:21;;;;;;;22.80;6.10;;;;;;;;;;5108304;28;20092;-66
2021/08/27 06:07:47;;;;;;;23.85;8.15;;;;;;;;;;5091166;28;20020;-67
2021/08/27 06:10:13;;;;;;;22.58;7.97;;;;;;;;;;5109536;28;20063;-66
2021/08/27 06:12:40;;;;;;;16.23;6.32;;;;;;;;;;5108558;28;20027;-67
2021/08/27 06:15:07;;;;;;;20.23;7.40;;;;;;;;;;5106485;28;20106;-67
2021/08/27 06:17:33;;;;;;;22.48;8.00;;;;;;;;;;5109647;28;20501;-66
2021/08/27 06:19:59;;;;;;;22.60;7.97;;;;;;;;;;5110028;28;20420;-66
2021/08/27 06:22:25;;;;;;;14.32;5.85;;;;;;;;;;5090028;28;20034;-66
2021/08/27 06:24:51;;;;;;;23.80;7.05;;;;;;;;;;5109699;28;20027;-66
2021/08/27 06:27:17;;;;;;;18.58;8.13;;;;;;;;;;5109388;28;20032;-67
2021/08/27 06:29:44;;;;;;;22.02;7.63;;;;;;;;;;5108733;28;20024;-67
2021/08/27 06:32:10;;;;;;;19.55;7.65;;;;;;;;;;5108186;28;20024;-66
2021/08/27 06:34:37;;;;;;;25.05;7.65;;;;;;;;;;5109088;28;20103;-66
2021/08/27 06:37:03;;;;;;;25.10;8.38;;;;;;;;;;5108659;28;20485;-67
2021/08/27 06:39:29;;;;;;;19.02;4.45;;;;;;;;;;5108265;28;20036;-66
2021/08/27 06:41:55;;;;;;;9.98;3.80;;;;;;;;;;5091057;28;20028;-66
2021/08/27 06:44:21;;;;;;;11.13;2.92;;;;;;;;;;5110814;28;20076;-66
2021/08/27 06:46:48;;;;;;;11.23;2.15;;;;;;;;;;5113866;28;20024;-66
2021/08/27 06:49:14;;;;;;;13.45;2.58;;;;;;;;;;5111243;28;20048;-65
2021/08/27 06:51:41;;;;;;;13.95;2.90;;;;;;;;;;5113265;28;20035;-67
2021/08/27 06:54:07;;;;;;;11.00;2.67;;;;;;;;;;5091704;28;20030;-66
2021/08/27 06:56:33;;;;;;;12.40;2.95;;;;;;;;;;5111206;28;20020;-65
2021/08/27 06:58:59;;;;;;;12.70;1.90;;;;;;;;;;5111245;28;20378;-66
2021/08/27 07:01:26;;;;;;;10.70;2.33;;;;;;;;;;5112761;28;20027;-66
2021/08/27 07:03:52;;;;;;;10.50;2.92;;;;;;;;;;5093619;28;20027;-66
2021/08/27 07:06:18;;;;;;;8.85;2.53;;;;;;;;;;5112786;28;20073;-66
2021/08/27 07:08:45;;;;;;;10.93;1.90;;;;;;;;;;5112567;28;20550;-67
2021/08/27 07:11:11;;;;;;;16.33;3.22;;;;;;;;;;5112976;28;20032;-66
2021/08/27 07:13:37;;;;;;;10.80;2.13;;;;;;;;;;5091379;28;20086;-66
2021/08/27 07:16:04;;;;;;;5.80;1.85;;;;;;;;;;5108812;28;20032;-66
2021/08/27 07:18:30;;;;;;;8.82;2.10;;;;;;;;;;5113106;28;20104;-66
2021/08/27 07:20:57;;;;;;;7.43;2.10;;;;;;;;;;5111262;28;20409;-67
2021/08/27 07:23:23;;;;;;;9.48;2.20;;;;;;;;;;5109598;28;20031;-66
2021/08/27 07:25:49;;;;;;;9.63;1.95;;;;;;;;;;5111305;28;20072;-67
2021/08/27 07:28:15;;;;;;;11.73;2.22;;;;;;;;;;5092664;28;20042;-67
2021/08/27 07:30:42;;;;;;;7.18;1.92;;;;;;;;;;5109813;28;20047;-66
2021/08/27 07:33:08;;;;;;;11.43;2.85;;;;;;;;;;5110173;28;20023;-66
2021/08/27 07:35:34;;;;;;;6.50;1.80;;;;;;;;;;5108043;28;20122;-67
2021/08/27 07:38:00;;;;;;;9.25;2.10;;;;;;;;;;5110422;28;20015;-67
2021/08/27 07:40:26;;;;;;;11.85;2.33;;;;;;;;;;5090026;28;20026;-67
2021/08/27 07:42:53;;;;;;;7.00;1.77;;;;;;;;;;5107617;28;20034;-67
2021/08/27 07:45:19;;;;;;;11.55;2.40;;;;;;;;;;5111205;28;20059;-67
2021/08/27 07:47:45;;;;;;;11.88;2.30;;;;;;;;;;5111380;28;20077;-67
2021/08/27 07:50:12;;;;;;;11.27;1.92;;;;;;;;;;5109775;28;20040;-66
2021/08/27 07:52:38;;;;;;;11.10;2.25;;;;;;;;;;5105663;28;20020;-66
2021/08/27 07:55:05;;;;;;;13.80;2.58;;;;;;;;;;5109157;28;20103;-66
2021/08/27 07:57:31;;;;;;;11.55;2.13;;;;;;;;;;5091226;28;20059;-67
2021/08/27 07:59:58;;;;;;;9.80;2.35;;;;;;;;;;5109374;28;20032;-66
2021/08/27 08:02:24;;;;;;;8.95;1.70;;;;;;;;;;5106254;28;20226;-67
2021/08/27 08:04:50;;;;;;;11.82;2.08;;;;;;;;;;5108575;28;20046;-67
2021/08/27 08:07:16;;;;;;;7.78;1.65;;;;;;;;;;5109706;28;20028;-67
2021/08/27 08:09:42;;;;;;;7.18;1.73;;;;;;;;;;5091065;28;20030;-66
2021/08/27 08:12:08;;;;;;;11.10;2.00;;;;;;;;;;5107410;27;20023;-66
2021/08/27 08:14:34;;;;;;;12.95;2.15;;;;;;;;;;5106720;28;20180;-66
2021/08/27 08:17:00;;;;;;;22.98;2.92;;;;;;;;;;5108090;28;20031;-66
2021/08/27 08:19:26;;;;;;;9.85;2.38;;;;;;;;;;5109557;28;20027;-66
2021/08/27 08:21:52;;;;;;;9.27;1.85;;;;;;;;;;5108694;28;20390;-66
2021/08/27 08:24:18;;;;;;;8.32;1.90;;;;;;;;;;5088781;28;20096;-68
2021/08/27 08:26:44;;;;;;;11.77;2.53;;;;;;;;;;5108435;28;20015;-67
2021/08/27 08:29:10;;;;;;;6.93;1.60;;;;;;;;;;5090112;28;21331;-66
2021/08/27 08:31:37;;;;;;;6.05;1.77;;;;;;;;;;5108171;28;20034;-66
2021/08/27 08:34:03;;;;;;;7.35;2.17;;;;;;;;;;5088291;28;20035;-67
2021/08/27 08:36:29;;;;;;;8.85;1.90;;;;;;;;;;5108662;28;20055;-67
2021/08/27 08:38:55;;;;;;;10.02;1.88;;;;;;;;;;5092464;28;20077;-66
2021/08/27 08:41:22;;;;;;;7.93;2.00;;;;;;;;;;5109953;28;21217;-66
2021/08/27 08:43:48;;;;;;;11.63;2.67;;;;;;;;;;5104923;28;20367;-66
2021/08/27 08:46:15;;;;;;;7.88;2.00;;;;;;;;;;5109037;28;20073;-66
2021/08/27 08:48:44;;;;;;;10.07;2.28;;;;;;;;;;5109605;28;20050;-66
2021/08/27 08:51:10;;;;;;;8.77;2.15;;;;;;;;;;5108649;28;20026;-67
2021/08/27 08:53:40;;;;;;;9.52;1.90;;;;;;;;;;5106640;28;20023;-66
2021/08/27 08:56:06;;;;;;;7.35;2.17;;;;;;;;;;5087953;28;20024;-66
2021/08/27 08:58:32;;;;;;;7.95;2.03;;;;;;;;;;5110805;28;20065;-65
2021/08/27 09:00:59;;;;;;;10.15;2.30;;;;;;;;;;5105411;28;20050;-66
2021/08/27 09:03:25;;;;;;;8.50;2.65;;;;;;;;;;5106275;28;20409;-66
2021/08/27 09:05:51;;;;;;;9.68;1.95;;;;;;;;;;5109317;28;20012;-66
2021/08/27 09:08:32;;;;;;;7.97;1.98;;;;;;;;;;5108944;28;20028;-66
2021/08/27 09:10:58;;;;;;;9.15;2.03;;;;;;;;;;5106843;28;20039;-66
2021/08/27 09:13:29;;;;;;;7.90;2.70;;;;;;;;;;5105339;28;20028;-66
2021/08/27 09:16:06;;;;;;;15.98;2.70;;;;;;;;;;5089054;28;20162;-66
2021/08/27 09:18:59;;;;;;;10.50;2.20;;;;;;;;;;5105964;28;20016;-67
2021/08/27 09:21:46;;;;;;;8.55;2.17;;;;;;;;;;5105832;28;20057;-66
2021/08/27 09:24:13;;;;;;;12.90;2.72;;;;;;;;;;5105321;28;20570;-66
2021/08/27 09:26:39;;;;;;;9.13;2.15;;;;;;;;;;5108694;28;20077;-66
2021/08/27 09:29:05;;;;;;;10.52;2.55;;;;;;;;;;5109768;28;20020;-67
2021/08/27 09:31:35;;;;;;;12.82;3.08;;;;;;;;;;5107163;28;20020;-66
2021/08/27 09:34:02;;;;;;;11.80;3.47;;;;;;;;;;5104256;28;20030;-66
2021/08/27 09:36:29;;;;;;;8.95;2.78;;;;;;;;;;5108747;28;20072;-67
2021/08/27 09:39:08;;;;;;;14.60;4.03;;;;;;;;;;5110140;28;20027;-66
2021/08/27 09:41:35;;;;;;;13.23;3.20;;;;;;;;;;5088297;28;20023;-67
2021/08/27 09:44:01;;;;;;;8.35;2.72;;;;;;;;;;5088206;28;20027;-67
2021/08/27 09:46:33;;;;;;;15.65;3.70;;;;;;;;;;5109283;28;20047;-66
2021/08/27 09:49:00;;;;;;;9.23;2.80;;;;;;;;;;5108706;28;20044;-66
2021/08/27 09:51:43;;;;;;;16.55;3.00;;;;;;;;;;5101614;28;20092;-68
2021/08/27 09:54:09;;;;;;;13.63;3.50;;;;;;;;;;5098514;28;20048;-67
2021/08/27 09:56:49;;;;;;;12.25;3.70;;;;;;;;;;5087184;28;20122;-67
2021/08/27 09:59:16;;;;;;;14.00;4.15;;;;;;;;;;5090355;28;20413;-67
2021/08/27 10:01:49;;;;;;;16.25;3.88;;;;;;;;;;5088146;28;20028;-67
2021/08/27 10:04:15;;;;;;;13.82;3.85;;;;;;;;;;5104625;28;20110;-67
2021/08/27 10:06:41;;;;;;;12.00;3.50;;;;;;;;;;5109051;28;20055;-67
2021/08/27 10:09:08;;;;;;;13.20;3.75;;;;;;;;;;5109131;28;20073;-67
2021/08/27 10:11:34;;;;;;;15.18;3.40;;;;;;;;;;5108884;28;20024;-67
2021/08/27 10:14:00;;;;;;;13.32;4.15;;;;;;;;;;5105872;28;20019;-68
2021/08/27 10:16:28;;;;;;;12.95;3.40;;;;;;;;;;5108988;28;20538;-67
2021/08/27 10:18:55;;;;;;;10.82;4.10;;;;;;;;;;5110914;28;20031;-68
2021/08/27 10:21:21;;;;;;;15.05;3.10;;;;;;;;;;5110636;28;20035;-66
2021/08/27 10:23:47;;;;;;;12.75;3.88;;;;;;;;;;5087039;28;20031;-68
2021/08/27 10:26:14;;;;;;;10.40;3.08;;;;;;;;;;5112888;28;20032;-66
2021/08/27 10:28:40;;;;;;;17.92;5.30;;;;;;;;;;5093766;28;20035;-66
2021/08/27 10:31:06;;;;;;;16.23;4.25;;;;;;;;;;5110221;28;20088;-66
2021/08/27 10:33:39;;;;;;;21.63;4.30;;;;;;;;;;5107580;28;20469;-67
2021/08/27 10:36:05;;;;;;;12.20;3.67;;;;;;;;;;5111695;28;20110;-66
2021/08/27 10:38:45;;;;;;;12.73;3.50;;;;;;;;;;5112571;28;20070;-67
2021/08/27 10:41:15;;;;;;;10.43;3.42;;;;;;;;;;5110398;28;20530;-66
2021/08/27 10:43:51;;;;;;;16.55;4.82;;;;;;;;;;5109424;28;20028;-66
2021/08/27 10:46:17;;;;;;;13.80;3.50;;;;;;;;;;5110294;28;20032;-67
2021/08/27 10:48:54;;;;;;;15.50;4.43;;;;;;;;;;5093905;28;20087;-65
2021/08/27 10:51:30;;;;;;;13.18;4.40;;;;;;;;;;5109588;28;20015;-65
2021/08/27 10:53:56;;;;;;;12.88;4.47;;;;;;;;;;5099405;28;20501;-66
2021/08/27 10:56:40;;;;;;;13.40;3.97;;;;;;;;;;5102045;28;20119;-66
2021/08/27 10:59:08;;;;;;;17.95;4.50;;;;;;;;;;5112539;28;20020;-66
2021/08/27 11:01:35;;;;;;;15.70;4.10;;;;;;;;;;5112303;28;20016;-66
2021/08/27 11:04:04;;;;;;;12.38;3.85;;;;;;;;;;5097396;28;20032;-66
2021/08/27 11:06:31;;;;;;;19.33;4.57;;;;;;;;;;5108369;28;20119;-66
2021/08/27 11:09:16;;;;;;;13.45;3.60;;;;;;;;;;5109041;28;20020;-65
2021/08/27 11:11:42;;;;;;;15.75;3.95;;;;;;;;;;5085009;28;20065;-66
2021/08/27 11:14:15;;;;;;;11.07;3.78;;;;;;;;;;5109954;28;20477;-65
2021/08/27 11:16:41;;;;;;;18.05;4.63;;;;;;;;;;5112165;28;20027;-65
2021/08/27 11:19:34;;;;;;;15.70;4.18;;;;;;;;;;5105001;28;20050;-66
2021/08/27 11:22:12;;;;;;;11.60;4.10;;;;;;;;;;5103629;28;20064;-65
2021/08/27 11:24:39;;;;;;;14.95;3.80;;;;;;;;;;5112298;28;20028;-65
2021/08/27 11:27:07;;;;;;;12.57;4.70;;;;;;;;;;5110475;28;20027;-65
2021/08/27 11:29:43;;;;;;;16.55;4.28;;;;;;;;;;5094192;28;20066;-65
2021/08/27 11:32:09;;;;;;;14.52;4.25;;;;;;;;;;5085833;28;20441;-65
2021/08/27 11:34:52;;;;;;;11.55;3.47;;;;;;;;;;5105580;28;20012;-66
2021/08/27 11:37:19;;;;;;;11.80;3.35;;;;;;;;;;5095120;28;20019;-65
2021/08/27 11:39:46;;;;;;;13.52;3.97;;;;;;;;;;5102320;28;20016;-65
2021/08/27 11:42:14;;;;;;;15.02;4.00;;;;;;;;;;5097863;28;20214;-65
2021/08/27 11:44:43;;;;;;;14.32;3.75;;;;;;;;;;5092583;28;20028;-67
2021/08/27 11:47:11;;;;;;;16.05;3.97;;;;;;;;;;5111938;28;20030;-69
2021/08/27 11:49:39;;;;;;;16.40;3.97;;;;;;;;;;5111739;28;20079;-68
2021/08/27 11:52:15;;;;;;;16.27;4.15;;;;;;;;;;5111931;28;20023;-68
2021/08/27 11:54:42;;;;;;;19.02;3.83;;;;;;;;;;5107542;28;20614;-67
2021/08/27 11:57:15;;;;;;;15.40;3.88;;;;;;;;;;5111339;28;20049;-66
2021/08/27 11:59:41;;;;;;;14.80;3.95;;;;;;;;;;5112074;28;20035;-66
2021/08/27 12:02:17;;;;;;;24.45;4.13;;;;;;;;;;5104270;28;20026;-66
2021/08/27 12:04:43;;;;;;;13.60;3.55;;;;;;;;;;5110236;28;20028;-64
2021/08/27 12:07:11;;;;;;;14.95;3.28;;;;;;;;;;5094262;28;20440;-67
2021/08/27 12:09:37;;;;;;;20.17;4.10;;;;;;;;;;5104143;28;20039;-66
2021/08/27 12:12:04;;;;;;;16.58;3.22;;;;;;;;;;5086723;28;20115;-67
2021/08/27 12:14:50;;;;;;;14.25;2.90;;;;;;;;;;5104484;28;20137;-67
2021/08/27 12:17:19;;;;;;;12.32;3.05;;;;;;;;;;5090682;28;20068;-68
2021/08/27 12:19:46;;;;;;;16.35;4.13;;;;;;;;;;5093618;28;20028;-67
2021/08/27 12:22:13;;;;;;;10.13;2.65;;;;;;;;;;5105332;28;20042;-67
2021/08/27 12:24:39;;;;;;;11.15;2.90;;;;;;;;;;5079340;28;20106;-67
2021/08/27 12:27:05;;;;;;;18.60;3.65;;;;;;;;;;5110935;28;20031;-67
2021/08/27 12:29:32;;;;;;;14.63;3.05;;;;;;;;;;5090470;28;20573;-67
2021/08/27 12:31:58;;;;;;;14.82;3.25;;;;;;;;;;5091635;28;20031;-67
2021/08/27 12:34:24;;;;;;;14.07;3.13;;;;;;;;;;5102281;28;20522;-67
2021/08/27 12:36:50;;;;;;;17.90;3.30;;;;;;;;;;5108609;28;20012;-66
2021/08/27 12:39:17;;;;;;;14.77;3.22;;;;;;;;;;5103069;28;20031;-67
2021/08/27 12:41:43;;;;;;;11.90;2.47;;;;;;;;;;5111567;28;20031;-66
2021/08/27 12:44:09;;;;;;;18.90;2.72;;;;;;;;;;5103894;28;20020;-68
2021/08/27 12:46:35;;;;;;;13.80;3.10;;;;;;;;;;5094026;28;20012;-66
2021/08/27 12:49:12;;;;;;;13.93;3.13;;;;;;;;;;5111230;28;20047;-67
2021/08/27 12:51:42;;;;;;;15.50;3.28;;;;;;;;;;5101395;28;20032;-66
2021/08/27 12:54:08;;;;;;;18.45;3.42;;;;;;;;;;5101545;28;20023;-66
2021/08/27 12:56:34;;;;;;;9.25;2.60;;;;;;;;;;5107015;28;20024;-67
2021/08/27 12:59:13;;;;;;;22.05;4.00;;;;;;;;;;5090037;28;20027;-67
2021/08/27 13:01:39;;;;;;;21.58;3.53;;;;;;;;;;5106450;28;20035;-67
2021/08/27 13:04:08;;;;;;;10.43;2.47;;;;;;;;;;5089171;28;20549;-66
2021/08/27 13:06:39;;;;;;;16.15;2.88;;;;;;;;;;5080783;28;20077;-67
2021/08/27 13:09:07;;;;;;;16.38;3.75;;;;;;;;;;5085148;28;20509;-70
2021/08/27 13:11:45;;;;;;;15.48;2.65;;;;;;;;;;5103207;28;20119;-66
2021/08/27 13:14:15;;;;;;;12.43;3.35;;;;;;;;;;5108730;28;20020;-67
2021/08/27 13:16:49;;;;;;;18.95;3.90;;;;;;;;;;5111142;28;20023;-67
2021/08/27 13:19:15;;;;;;;17.90;3.45;;;;;;;;;;5104315;28;20028;-67
2021/08/27 13:21:41;;;;;;;16.98;3.58;;;;;;;;;;5092143;28;20046;-65
2021/08/27 13:24:11;;;;;;;18.48;2.90;;;;;;;;;;5100302;28;20020;-67
2021/08/27 13:26:38;;;;;;;14.70;3.03;;;;;;;;;;5107938;28;20023;-67
2021/08/27 13:29:04;;;;;;;19.38;3.90;;;;;;;;;;5104604;28;20035;-68
2021/08/27 13:31:31;;;;;;;14.43;2.92;;;;;;;;;;5108534;27;20064;-67
2021/08/27 13:33:57;;;;;;;18.33;3.35;;;;;;;;;;5075385;28;20024;-67
2021/08/27 13:36:23;;;;;;;18.92;3.55;;;;;;;;;;5110973;28;20020;-68
2021/08/27 13:38:50;;;;;;;15.90;3.13;;;;;;;;;;5109800;28;20085;-67
2021/08/27 13:41:16;;;;;;;17.10;2.85;;;;;;;;;;5093611;28;20073;-67
2021/08/27 13:43:42;;;;;;;19.42;3.97;;;;;;;;;;5077315;28;20076;-67
2021/08/27 13:46:08;;;;;;;20.42;3.72;;;;;;;;;;5105889;28;20035;-68
2021/08/27 13:48:35;;;;;;;13.32;2.75;;;;;;;;;;5107469;28;20032;-66
2021/08/27 13:51:01;;;;;;;21.20;3.40;;;;;;;;;;5091050;28;20027;-67
2021/08/27 13:53:27;;;;;;;15.57;3.25;;;;;;;;;;5100349;28;20397;-66
2021/08/27 13:55:53;;;;;;;13.52;3.20;;;;;;;;;;5079862;28;20070;-67
2021/08/27 13:58:19;;;;;;;13.55;3.30;;;;;;;;;;5079867;28;20038;-67
2021/08/27 14:00:45;;;;;;;15.05;3.05;;;;;;;;;;5093461;28;20021;-67
2021/08/27 14:03:13;;;;;;;16.25;3.22;;;;;;;;;;5102064;28;20038;-67
2021/08/27 14:05:40;;;;;;;19.77;3.00;;;;;;;;;;5098724;28;20497;-66
2021/08/27 14:08:07;;;;;;;14.02;3.83;;;;;;;;;;5081434;28;20022;-66
2021/08/27 14:10:33;;;;;;;12.02;2.92;;;;;;;;;;5106326;28;20032;-67
2021/08/27 14:12:59;;;;;;;16.52;3.22;;;;;;;;;;5108308;28;20069;-67
2021/08/27 14:15:25;;;;;;;16.42;3.70;;;;;;;;;;5110011;28;20446;-70
2021/08/27 14:17:51;;;;;;;16.98;3.10;;;;;;;;;;5110346;28;20015;-69
2021/08/27 14:20:18;;;;;;;20.95;3.35;;;;;;;;;;5109818;28;20493;-68
2021/08/27 14:22:45;;;;;;;14.57;2.70;;;;;;;;;;5107237;28;20035;-69
2021/08/27 14:25:13;;;;;;;20.50;3.83;;;;;;;;;;5110266;28;20027;-69
2021/08/27 14:27:39;;;;;;;18.33;3.33;;;;;;;;;;5089130;28;20122;-72
2021/08/27 14:30:07;;;;;;;16.17;2.92;;;;;;;;;;5109182;28;20032;-70
2021/08/27 14:32:34;;;;;;;19.13;4.18;;;;;;;;;;5104845;28;20051;-69
2021/08/27 14:35:00;;;;;;;16.73;2.75;;;;;;;;;;5108513;28;20047;-69
2021/08/27 14:37:27;;;;;;;19.60;3.47;;;;;;;;;;5110178;28;20076;-70